Villarrica, Chile
Current Conditions -  °F | °C
As of 1:00 PM on Sunday 21 Dec 2014 (Local Time) from SCQP Reporting Station
Broken Clouds Broken Clouds  
Wind Chill: 57°   Ceiling: 4500
Heat Index: 57°   Visibility: 6mi
Dew Point: 36°   Wind: 9mph
Humidity: 44%   Direction: 190°S
Pressure: 30.21"   Gusts: NA
Location:  39.28°S, 72.23°W
Report Text: SCQP 211700Z 19008KT 160V230 9999 BKN045 14/02 Q1023
Loading
Personal Weather Stations






























Interactive Weather Map New forecast layout! Learn more

10-Day Weather Forecast

Advertisements
Track Severe Weather on mobile